Time;durP1;ratioP1;P1;durP2;ratioP2;P2;SDS_P1;SDS_P2;PMS_P1;PMS_P2;Temp;Humidity;BMP_temperature;BMP_pressure;BME280_temperature;BME280_humidity;BME280_pressure;Samples;Min_cycle;Max_cycle;Signal;HPM_P1;HPM_P2
2022/05/16 00:00:25;;;;;;;4.25;2.33;;;14.10;91.40;;;;;;5054280;28;20029;-82
2022/05/16 00:02:51;;;;;;;5.72;1.63;;;14.00;91.50;;;;;;5065753;28;20028;-82
2022/05/16 00:05:17;;;;;;;6.20;2.20;;;14.00;91.60;;;;;;5067396;28;20047;-82
2022/05/16 00:07:42;;;;;;;2.97;1.80;;;13.90;91.60;;;;;;5069955;28;20119;-82
2022/05/16 00:10:08;;;;;;;3.65;1.58;;;13.90;91.60;;;;;;5068855;28;20095;-82
2022/05/16 00:12:34;;;;;;;5.65;1.98;;;13.90;91.70;;;;;;5067488;28;20032;-82
2022/05/16 00:15:00;;;;;;;2.88;1.67;;;13.90;91.70;;;;;;5069284;28;20025;-82
2022/05/16 00:17:26;;;;;;;5.18;2.03;;;13.80;91.70;;;;;;5067615;28;20043;-82
2022/05/16 00:19:52;;;;;;;4.90;2.05;;;13.80;91.70;;;;;;5061577;28;20113;-82
2022/05/16 00:22:18;;;;;;;5.43;2.20;;;13.70;91.70;;;;;;5068303;28;20051;-81
2022/05/16 00:24:44;;;;;;;5.82;1.83;;;13.70;91.80;;;;;;5062740;28;20044;-82
2022/05/16 00:27:11;;;;;;;3.78;2.10;;;13.70;92.00;;;;;;5074104;28;20105;-81
2022/05/16 00:29:37;;;;;;;5.63;1.85;;;13.60;92.00;;;;;;5067030;28;20450;-82
2022/05/16 00:32:04;;;;;;;3.42;2.13;;;13.60;92.00;;;;;;5068492;28;20033;-81
2022/05/16 00:34:29;;;;;;;3.85;1.65;;;13.60;92.20;;;;;;5068685;28;20664;-81
2022/05/16 00:36:55;;;;;;;4.00;1.65;;;13.50;92.30;;;;;;5053671;28;20175;-82
2022/05/16 00:39:21;;;;;;;4.05;2.00;;;13.50;92.30;;;;;;5069725;28;20266;-81
2022/05/16 00:41:48;;;;;;;3.55;1.80;;;13.40;92.40;;;;;;5072547;28;20064;-82
2022/05/16 00:44:15;;;;;;;1.63;1.42;;;13.40;92.40;;;;;;5073139;28;20032;-81
2022/05/16 00:46:41;;;;;;;2.85;1.73;;;13.40;92.40;;;;;;5070699;28;20064;-82
2022/05/16 00:49:16;;;;;;;4.63;2.08;;;13.30;92.40;;;;;;5071401;28;20068;-82
2022/05/16 00:52:13;;;;;;;6.40;2.13;;;13.30;92.50;;;;;;5062930;28;20443;-82
2022/05/16 00:54:49;;;;;;;3.33;1.52;;;13.30;92.60;;;;;;5071129;28;20496;-82
2022/05/16 00:57:20;;;;;;;2.45;1.73;;;13.20;92.60;;;;;;5070587;28;20166;-82
2022/05/16 00:59:58;;;;;;;6.63;1.75;;;13.20;92.60;;;;;;5070873;28;20437;-82
2022/05/16 01:05:10;;;;;;;2.33;1.60;;;13.20;92.80;;;;;;5072286;28;20532;-82
2022/05/16 01:07:38;;;;;;;7.78;2.13;;;13.10;92.80;;;;;;5070481;28;20036;-81
2022/05/16 01:10:07;;;;;;;3.08;1.88;;;13.10;93.00;;;;;;5070733;28;20029;-81
2022/05/16 01:12:36;;;;;;;3.33;1.65;;;13.10;93.00;;;;;;5070252;28;20060;-82
2022/05/16 01:15:05;;;;;;;3.85;1.80;;;13.10;93.10;;;;;;5072373;28;20724;-81
2022/05/16 01:17:30;;;;;;;6.22;2.88;;;13.10;93.10;;;;;;5065339;28;20751;-84
2022/05/16 01:19:56;;;;;;;3.08;1.52;;;13.00;93.10;;;;;;5067056;28;20115;-82
2022/05/16 01:22:46;;;;;;;3.40;1.90;;;13.00;93.10;;;;;;5071352;28;20064;-83
2022/05/16 01:25:32;;;;;;;4.38;2.15;;;13.00;93.10;;;;;;5071445;28;20033;-82
2022/05/16 01:28:04;;;;;;;2.80;2.22;;;12.90;93.20;;;;;;5070378;28;20505;-82
2022/05/16 01:30:39;;;;;;;1.38;1.10;;;12.90;93.20;;;;;;5072014;28;20405;-84
2022/05/16 01:33:05;;;;;;;4.05;1.77;;;12.90;93.20;;;;;;5070507;28;20042;-82
2022/05/16 01:35:32;;;;;;;2.97;1.73;;;12.90;93.20;;;;;;5062218;28;20032;-83
2022/05/16 01:40:43;;;;;;;2.65;1.30;;;12.80;93.30;;;;;;5070957;28;20440;-82
2022/05/16 01:43:10;;;;;;;5.40;1.77;;;12.80;93.30;;;;;;5069457;28;20025;-82
2022/05/16 01:45:37;;;;;;;2.55;1.63;;;12.70;93.50;;;;;;5069763;28;20028;-82
2022/05/16 01:48:03;;;;;;;2.90;1.70;;;12.70;93.50;;;;;;5067257;28;20471;-82
2022/05/16 01:50:28;;;;;;;4.22;1.92;;;12.70;93.50;;;;;;5063634;28;20197;-82
2022/05/16 01:52:54;;;;;;;2.35;1.73;;;12.70;93.70;;;;;;5070592;28;20490;-82
2022/05/16 01:55:19;;;;;;;4.53;1.40;;;12.70;93.70;;;;;;5069284;28;20375;-84
2022/05/16 01:57:45;;;;;;;6.32;2.00;;;12.60;93.80;;;;;;5070186;28;20024;-81
2022/05/16 02:00:13;;;;;;;3.00;1.73;;;12.60;93.70;;;;;;5069424;28;20534;-82
2022/05/16 02:02:41;;;;;;;1.98;1.50;;;12.60;93.70;;;;;;5071066;28;20039;-82
2022/05/16 02:05:07;;;;;;;4.43;1.95;;;12.60;93.70;;;;;;5071100;28;20475;-81
2022/05/16 02:07:33;;;;;;;4.68;1.60;;;12.60;93.70;;;;;;5070788;28;20075;-82
2022/05/16 02:09:59;;;;;;;4.10;1.65;;;12.60;93.60;;;;;;5069498;28;20064;-83
2022/05/16 02:12:24;;;;;;;4.22;1.77;;;12.60;93.60;;;;;;5064217;28;20063;-82
2022/05/16 02:14:50;;;;;;;6.07;2.03;;;12.60;93.60;;;;;;5071082;28;20040;-82
2022/05/16 02:17:15;;;;;;;3.38;1.50;;;12.60;93.70;;;;;;5070790;28;20479;-82
2022/05/16 02:19:41;;;;;;;5.50;1.80;;;12.60;93.70;;;;;;5068352;28;20028;-82
2022/05/16 02:24:50;;;;;;;5.35;1.77;;;12.50;93.80;;;;;;5057966;28;20035;-82
2022/05/16 02:27:17;;;;;;;5.20;1.73;;;12.50;93.80;;;;;;5068618;28;20135;-82
2022/05/16 02:29:44;;;;;;;4.65;1.73;;;12.50;93.80;;;;;;5071477;28;20443;-82
2022/05/16 02:32:11;;;;;;;4.15;1.90;;;12.50;93.70;;;;;;5069543;28;20029;-81
2022/05/16 02:34:36;;;;;;;2.50;1.40;;;12.50;93.70;;;;;;5069607;28;20071;-82
2022/05/16 02:37:02;;;;;;;3.30;1.52;;;12.40;93.70;;;;;;5070031;28;20443;-84
2022/05/16 02:39:28;;;;;;;4.05;1.63;;;12.40;93.70;;;;;;5069827;28;20061;-82
2022/05/16 02:41:54;;;;;;;2.67;1.30;;;12.40;93.70;;;;;;5065697;28;20471;-82
2022/05/16 02:44:21;;;;;;;3.78;1.23;;;12.40;93.70;;;;;;5068401;28;20020;-81
2022/05/16 02:46:46;;;;;;;2.88;1.38;;;12.40;93.70;;;;;;5063315;28;20040;-82
2022/05/16 02:49:12;;;;;;;4.72;1.45;;;12.40;93.70;;;;;;5070694;28;20163;-81
2022/05/16 02:51:37;;;;;;;2.65;1.42;;;12.40;93.70;;;;;;5066299;28;20324;-81
2022/05/16 02:54:03;;;;;;;3.63;1.42;;;12.40;93.70;;;;;;5069683;28;20021;-82
2022/05/16 02:56:30;;;;;;;6.47;1.75;;;12.40;93.80;;;;;;5068488;28;20682;-84
2022/05/16 02:58:55;;;;;;;4.72;1.63;;;12.40;93.70;;;;;;5069131;28;20402;-82
2022/05/16 03:01:21;;;;;;;2.58;1.30;;;12.40;93.60;;;;;;5068926;28;20033;-84
2022/05/16 03:03:46;;;;;;;2.22;1.38;;;12.40;93.60;;;;;;5069062;28;20032;-84
2022/05/16 03:06:12;;;;;;;3.67;1.73;;;12.40;93.60;;;;;;5070030;28;20106;-84
2022/05/16 03:08:39;;;;;;;6.25;1.65;;;12.40;93.50;;;;;;5077232;28;20371;-83
2022/05/16 03:11:05;;;;;;;2.55;1.25;;;12.40;93.40;;;;;;5068121;28;20093;-84
2022/05/16 03:13:31;;;;;;;5.15;1.30;;;12.40;93.40;;;;;;5068339;28;20033;-83
2022/05/16 03:15:57;;;;;;;3.67;1.65;;;12.40;93.20;;;;;;5067541;28;20059;-83
2022/05/16 03:18:23;;;;;;;2.17;1.40;;;12.40;93.10;;;;;;5071543;28;20463;-84
2022/05/16 03:20:52;;;;;;;2.60;1.17;;;12.40;93.00;;;;;;5067447;28;20075;-83
2022/05/16 03:23:18;;;;;;;4.07;1.77;;;12.40;92.80;;;;;;5057080;28;20025;-84
2022/05/16 03:25:44;;;;;;;1.70;1.08;;;12.40;93.00;;;;;;5065017;28;20028;-82
2022/05/16 03:28:10;;;;;;;2.38;1.17;;;12.50;92.80;;;;;;5067892;28;20036;-84
2022/05/16 03:30:36;;;;;;;3.78;1.65;;;12.50;92.80;;;;;;5069149;28;20032;-83
2022/05/16 03:33:03;;;;;;;2.55;1.60;;;12.60;92.70;;;;;;5068926;28;20448;-83
2022/05/16 03:35:29;;;;;;;3.97;1.45;;;12.60;92.80;;;;;;5067303;28;20028;-84
2022/05/16 03:37:54;;;;;;;2.45;1.20;;;12.60;92.80;;;;;;5069654;28;20033;-84
2022/05/16 03:43:04;;;;;;;4.03;1.67;;;12.70;92.60;;;;;;5068654;28;20063;-83
2022/05/16 03:45:29;;;;;;;5.00;1.88;;;12.70;92.50;;;;;;5066835;28;20056;-84
2022/05/16 03:47:55;;;;;;;6.47;1.60;;;12.70;92.60;;;;;;5068593;28;20035;-83
2022/05/16 03:50:20;;;;;;;4.28;1.40;;;12.70;92.60;;;;;;5059248;28;20032;-84
2022/05/16 03:52:46;;;;;;;2.25;1.20;;;12.70;92.60;;;;;;5064493;28;20033;-84
2022/05/16 03:55:14;;;;;;;2.90;1.48;;;12.80;92.60;;;;;;5063330;28;20039;-84
2022/05/16 03:57:41;;;;;;;2.55;1.50;;;12.80;92.50;;;;;;5061630;28;20037;-84
2022/05/16 04:00:12;;;;;;;2.92;1.25;;;12.80;92.50;;;;;;5064040;28;20437;-83
2022/05/16 04:02:42;;;;;;;1.80;1.13;;;12.80;92.60;;;;;;5064410;28;20052;-83
2022/05/16 04:05:09;;;;;;;3.47;1.73;;;12.80;92.60;;;;;;5066949;28;20529;-83
2022/05/16 04:07:36;;;;;;;3.22;1.48;;;12.80;92.60;;;;;;5068795;28;20386;-83
2022/05/16 04:10:01;;;;;;;4.10;1.35;;;12.80;92.60;;;;;;5068001;28;20032;-84
2022/05/16 04:12:27;;;;;;;2.05;1.42;;;12.80;92.60;;;;;;5067908;28;20040;-83
2022/05/16 04:14:53;;;;;;;5.82;1.80;;;12.80;92.50;;;;;;5074954;28;20021;-83
2022/05/16 04:17:19;;;;;;;2.63;1.33;;;12.90;92.50;;;;;;5070374;28;20402;-84
2022/05/16 04:19:45;;;;;;;2.83;1.67;;;12.90;92.50;;;;;;5071462;28;20060;-83
2022/05/16 04:22:12;;;;;;;4.60;1.80;;;12.90;92.60;;;;;;5069718;28;20545;-83
2022/05/16 04:24:37;;;;;;;4.25;1.88;;;12.90;92.70;;;;;;5069050;28;20044;-82
2022/05/16 04:27:03;;;;;;;3.08;1.30;;;12.90;92.70;;;;;;5072466;28;20467;-83
2022/05/16 04:29:29;;;;;;;4.97;1.85;;;12.90;92.80;;;;;;5075034;28;20394;-83
2022/05/16 04:31:54;;;;;;;3.63;1.80;;;13.00;92.90;;;;;;5071427;28;20028;-83
2022/05/16 04:34:20;;;;;;;8.10;1.80;;;13.00;92.90;;;;;;5071475;28;20025;-83
2022/05/16 04:36:45;;;;;;;6.63;1.80;;;13.00;92.90;;;;;;5064147;28;20044;-83
2022/05/16 04:39:11;;;;;;;4.57;2.38;;;13.00;92.90;;;;;;5068165;28;20040;-83
2022/05/16 04:44:21;;;;;;;3.40;1.70;;;13.10;93.00;;;;;;5072682;28;20031;-84
2022/05/16 04:46:47;;;;;;;3.90;2.00;;;13.10;93.00;;;;;;5067208;28;20041;-83
2022/05/16 04:49:12;;;;;;;4.93;1.73;;;13.10;93.00;;;;;;5060491;28;20052;-83
2022/05/16 04:51:39;;;;;;;3.03;2.10;;;13.20;93.10;;;;;;5065000;28;20033;-83
2022/05/16 04:54:04;;;;;;;5.68;1.95;;;13.20;93.20;;;;;;5063709;28;20052;-83
2022/05/16 04:56:31;;;;;;;3.08;1.67;;;13.20;93.20;;;;;;5069577;28;20434;-83
2022/05/16 04:58:56;;;;;;;2.53;1.83;;;13.30;93.20;;;;;;5059167;28;20035;-82
2022/05/16 05:01:24;;;;;;;3.30;1.52;;;13.30;93.30;;;;;;5053342;28;20036;-83
2022/05/16 05:03:49;;;;;;;5.40;1.70;;;13.40;93.20;;;;;;5063151;28;20040;-82
2022/05/16 05:06:15;;;;;;;7.15;3.20;;;13.40;93.20;;;;;;5068250;28;20448;-83
2022/05/16 05:08:40;;;;;;;11.60;2.15;;;13.40;92.90;;;;;;5061131;28;20028;-83
2022/05/16 05:16:35;;;;;;;3.10;2.00;;;13.60;92.80;;;;;;5057071;28;20142;-83
2022/05/16 05:19:01;;;;;;;5.03;1.55;;;13.70;92.90;;;;;;5068426;28;20398;-82
2022/05/16 05:21:27;;;;;;;5.85;2.40;;;13.80;92.70;;;;;;5067244;28;20024;-83
2022/05/16 05:23:55;;;;;;;5.60;2.33;;;13.90;92.70;;;;;;5065107;28;20445;-83
2022/05/16 05:26:20;;;;;;;3.72;1.80;;;13.90;92.20;;;;;;5055109;28;20055;-83
2022/05/16 05:28:46;;;;;;;3.83;1.52;;;14.00;92.40;;;;;;5070862;28;20510;-82
2022/05/16 05:31:14;;;;;;;3.33;2.03;;;14.10;92.50;;;;;;5063293;28;20099;-82
2022/05/16 05:33:40;;;;;;;5.50;1.65;;;14.20;92.40;;;;;;5059511;28;20024;-82
2022/05/16 05:36:06;;;;;;;5.57;1.50;;;14.30;92.00;;;;;;5067575;28;20041;-82
2022/05/16 05:38:31;;;;;;;3.85;2.03;;;14.30;92.10;;;;;;5068848;28;20039;-84
2022/05/16 05:40:57;;;;;;;2.78;1.70;;;14.50;92.20;;;;;;5068753;28;20028;-83
2022/05/16 05:43:22;;;;;;;6.60;2.03;;;14.50;92.10;;;;;;5065419;28;20077;-83
2022/05/16 05:45:48;;;;;;;7.22;1.95;;;14.60;91.60;;;;;;5052094;28;20455;-83
2022/05/16 05:48:13;;;;;;;4.53;1.75;;;14.70;91.60;;;;;;5057462;28;20498;-84
2022/05/16 05:50:39;;;;;;;3.45;1.48;;;14.90;91.90;;;;;;5068041;28;20069;-84
2022/05/16 05:53:04;;;;;;;4.05;1.88;;;15.00;91.30;;;;;;5067722;28;20024;-85
2022/05/16 05:55:30;;;;;;;4.40;1.98;;;15.10;90.50;;;;;;5066731;28;20745;-84
2022/05/16 05:57:57;;;;;;;4.95;2.05;;;15.20;90.30;;;;;;5072083;28;20024;-83
2022/05/16 06:00:22;;;;;;;8.13;1.45;;;15.20;90.30;;;;;;5063639;28;20037;-84
2022/05/16 06:02:48;;;;;;;7.55;2.58;;;15.40;90.20;;;;;;5062270;28;20017;-83
2022/05/16 06:05:18;;;;;;;5.82;1.70;;;15.50;90.30;;;;;;5060153;28;20025;-83
2022/05/16 06:07:43;;;;;;;5.25;2.65;;;15.70;90.30;;;;;;5060298;28;20029;-83
2022/05/16 06:10:09;;;;;;;6.45;1.75;;;15.80;90.10;;;;;;5066735;28;20021;-84
2022/05/16 06:12:35;;;;;;;9.27;1.65;;;16.00;89.80;;;;;;5064873;28;20021;-84
2022/05/16 06:15:03;;;;;;;9.15;1.70;;;16.20;87.90;;;;;;5058755;28;20063;-83
2022/05/16 06:17:28;;;;;;;8.35;1.42;;;16.30;87.10;;;;;;5055172;28;20044;-83
2022/05/16 06:19:54;;;;;;;11.38;2.85;;;16.50;86.70;;;;;;5066414;28;20024;-84
2022/05/16 06:22:19;;;;;;;7.57;2.08;;;16.70;86.20;;;;;;5077842;28;20027;-83
2022/05/16 06:27:30;;;;;;;5.88;1.90;;;17.00;86.10;;;;;;5066572;28;20055;-84
2022/05/16 06:29:59;;;;;;;4.20;1.55;;;17.20;85.40;;;;;;5079717;28;20071;-85
2022/05/16 06:32:24;;;;;;;5.57;1.88;;;17.40;85.70;;;;;;5060674;28;20029;-83
2022/05/16 06:34:55;;;;;;;3.92;1.48;;;17.50;84.80;;;;;;5066482;28;20031;-83
2022/05/16 06:37:20;;;;;;;10.60;1.60;;;17.70;84.60;;;;;;5074305;28;20065;-83
2022/05/16 06:39:46;;;;;;;5.88;1.77;;;17.90;83.50;;;;;;5073785;28;20100;-82
2022/05/16 06:42:12;;;;;;;8.05;1.73;;;18.00;84.00;;;;;;5085408;28;20031;-83
2022/05/16 06:44:38;;;;;;;5.38;1.50;;;18.20;83.60;;;;;;5078096;28;20028;-83
2022/05/16 06:47:05;;;;;;;4.88;1.38;;;18.30;81.40;;;;;;5060353;28;20046;-82
2022/05/16 06:49:31;;;;;;;2.97;1.73;;;18.50;81.30;;;;;;5063400;28;20041;-83
2022/05/16 06:51:57;;;;;;;5.25;1.70;;;18.50;81.10;;;;;;5062756;28;20036;-83
2022/05/16 06:54:23;;;;;;;3.60;1.67;;;18.60;81.10;;;;;;5065980;28;20035;-82
2022/05/16 06:56:48;;;;;;;6.03;1.98;;;18.60;80.20;;;;;;5052411;28;20458;-83
2022/05/16 06:59:14;;;;;;;10.98;1.60;;;18.70;80.90;;;;;;5058488;28;20020;-83
2022/05/16 07:01:39;;;;;;;4.25;1.67;;;18.70;81.00;;;;;;5046740;28;20044;-83
2022/05/16 07:04:05;;;;;;;5.70;1.60;;;18.80;81.20;;;;;;5062108;28;20031;-83
2022/05/16 07:06:31;;;;;;;8.90;2.28;;;18.80;81.10;;;;;;5064756;28;20493;-84
2022/05/16 07:08:56;;;;;;;7.60;2.38;;;18.90;81.10;;;;;;5065272;28;20082;-84
2022/05/16 07:11:22;;;;;;;7.25;2.13;;;19.00;80.20;;;;;;5069477;28;20422;-83
2022/05/16 07:13:48;;;;;;;8.07;1.70;;;19.10;80.50;;;;;;5063918;28;20028;-83
2022/05/16 07:16:13;;;;;;;9.20;1.75;;;19.10;81.00;;;;;;5057734;28;20037;-83
2022/05/16 07:18:39;;;;;;;5.28;1.45;;;19.30;79.10;;;;;;5059490;28;20111;-84
2022/05/16 07:21:05;;;;;;;4.28;1.30;;;19.30;79.00;;;;;;5062442;28;20036;-83
2022/05/16 07:23:31;;;;;;;3.92;1.40;;;19.40;78.40;;;;;;5071678;28;20109;-83
2022/05/16 07:28:40;;;;;;;4.90;1.90;;;19.70;78.70;;;;;;5058642;28;20046;-82
2022/05/16 07:31:07;;;;;;;5.10;1.40;;;19.90;78.50;;;;;;5065910;28;20147;-82
2022/05/16 07:33:34;;;;;;;5.00;1.38;;;20.10;80.50;;;;;;5066153;28;20036;-83
2022/05/16 07:35:59;;;;;;;4.40;1.38;;;20.30;78.00;;;;;;5062718;28;20519;-83
2022/05/16 07:38:26;;;;;;;3.88;1.85;;;20.40;77.20;;;;;;5060307;28;20094;-83
2022/05/16 07:40:52;;;;;;;5.60;1.40;;;20.60;77.30;;;;;;5065249;28;20134;-83
2022/05/16 07:43:19;;;;;;;5.47;1.45;;;20.80;77.10;;;;;;5059020;28;20412;-83
2022/05/16 07:45:45;;;;;;;4.70;1.60;;;21.00;76.70;;;;;;5058413;28;20057;-82
2022/05/16 07:48:12;;;;;;;5.38;1.48;;;21.20;77.90;;;;;;5063835;28;20054;-83
2022/05/16 07:50:38;;;;;;;2.95;1.17;;;21.40;73.60;;;;;;5061421;28;20043;-83
2022/05/16 07:53:11;;;;;;;6.85;2.00;;;21.60;72.70;;;;;;5055780;28;20557;-83
2022/05/16 07:55:37;;;;;;;;;;;21.70;74.00;;;;;;5064791;28;20060;-84
2022/05/16 07:58:02;;;;;;;3.05;1.33;;;22.00;73.00;;;;;;5064241;28;19958;-83
2022/05/16 08:00:28;;;;;;;7.32;1.23;;;22.10;73.30;;;;;;5059571;28;20074;-83
2022/05/16 08:02:53;;;;;;;5.10;1.33;;;22.30;73.50;;;;;;5065471;28;20383;-83
2022/05/16 08:05:20;;;;;;;7.80;1.40;;;22.40;72.30;;;;;;5062569;28;20017;-84
2022/05/16 08:10:30;;;;;;;5.18;1.58;;;22.70;70.10;;;;;;5060084;28;20367;-83
2022/05/16 08:12:56;;;;;;;5.57;1.48;;;22.80;69.80;;;;;;5052758;28;20032;-83
2022/05/16 08:15:22;;;;;;;5.22;1.45;;;23.00;70.60;;;;;;5062974;28;20045;-82
2022/05/16 08:17:47;;;;;;;4.07;1.75;;;23.10;69.00;;;;;;5052056;28;20031;-82
2022/05/16 08:20:13;;;;;;;4.47;1.50;;;23.30;69.40;;;;;;5061379;28;20122;-82
2022/05/16 08:22:38;;;;;;;7.38;1.88;;;23.30;69.10;;;;;;5065544;28;20028;-83
2022/05/16 08:25:05;;;;;;;5.82;1.48;;;23.40;67.50;;;;;;5064796;28;20025;-83
2022/05/16 08:27:30;;;;;;;5.18;2.05;;;23.50;68.70;;;;;;5061214;28;20062;-82
2022/05/16 08:29:56;;;;;;;6.18;1.25;;;23.60;67.40;;;;;;5058787;28;20033;-83
2022/05/16 08:32:25;;;;;;;6.68;1.60;;;23.70;67.90;;;;;;5064250;28;20032;-83
2022/05/16 08:34:57;;;;;;;6.97;1.77;;;23.80;67.10;;;;;;5063551;28;20032;-83
2022/05/16 08:40:09;;;;;;;2.05;1.63;;;24.20;67.00;;;;;;5058383;28;20157;-83
2022/05/16 08:42:56;;;;;;;4.80;1.70;;;24.30;67.60;;;;;;5053818;28;20065;-83
2022/05/16 08:45:30;;;;;;;2.42;1.20;;;24.40;66.30;;;;;;5055492;28;20040;-83
2022/05/16 08:48:06;;;;;;;5.20;1.70;;;24.70;68.60;;;;;;5066173;28;20105;-83
2022/05/16 08:50:41;;;;;;;4.05;1.05;;;24.80;67.40;;;;;;5061644;28;20036;-84
2022/05/16 08:53:13;;;;;;;4.20;1.63;;;24.90;68.30;;;;;;5061338;28;20028;-84
2022/05/16 08:55:47;;;;;;;5.13;1.50;;;25.00;65.10;;;;;;5053234;28;20032;-83
2022/05/16 08:58:17;;;;;;;3.35;1.70;;;25.00;65.20;;;;;;5061569;28;20323;-84
2022/05/16 09:00:51;;;;;;;4.32;1.77;;;25.10;65.80;;;;;;5068168;28;20090;-84
2022/05/16 09:03:38;;;;;;;6.03;1.63;;;25.30;65.70;;;;;;5067247;28;20059;-84
2022/05/16 09:06:12;;;;;;;2.03;1.10;;;25.40;65.10;;;;;;5067705;28;20028;-84
2022/05/16 09:08:55;;;;;;;7.38;1.60;;;25.60;66.20;;;;;;5057870;28;20036;-84
2022/05/16 09:11:50;;;;;;;5.97;2.13;;;25.70;63.80;;;;;;5058549;28;20020;-84
2022/05/16 09:14:39;;;;;;;5.00;1.17;;;25.80;66.50;;;;;;5061964;28;20025;-84
2022/05/16 09:17:27;;;;;;;6.53;1.88;;;25.80;64.90;;;;;;5068722;28;20040;-83
2022/05/16 09:20:13;;;;;;;3.30;1.50;;;25.90;67.60;;;;;;5070289;28;20024;-83
2022/05/16 09:23:01;;;;;;;8.02;1.45;;;25.80;64.50;;;;;;5065386;28;20020;-84
2022/05/16 09:25:38;;;;;;;3.80;1.35;;;26.00;63.60;;;;;;5068110;28;20119;-83
2022/05/16 09:30:58;;;;;;;5.18;1.20;;;26.10;66.60;;;;;;5069700;28;20128;-83
2022/05/16 09:33:27;;;;;;;4.20;1.63;;;26.30;62.40;;;;;;5061616;28;20429;-83
2022/05/16 09:35:52;;;;;;;3.65;1.50;;;26.40;65.80;;;;;;5067932;28;20063;-83
2022/05/16 09:38:19;;;;;;;3.38;1.55;;;26.60;65.90;;;;;;5069102;28;20057;-83
2022/05/16 09:41:03;;;;;;;5.10;1.30;;;26.90;66.10;;;;;;5069975;28;20024;-82
2022/05/16 09:43:39;;;;;;;2.83;1.10;;;27.10;63.30;;;;;;5062600;28;20028;-82
2022/05/16 09:46:45;;;;;;;2.58;1.35;;;27.30;61.80;;;;;;5060522;28;20036;-82
2022/05/16 09:49:21;;;;;;;3.40;0.93;;;27.50;59.40;;;;;;5065684;28;20123;-83
2022/05/16 09:51:55;;;;;;;2.00;1.10;;;27.40;62.40;;;;;;5062636;28;20058;-82
2022/05/16 09:54:28;;;;;;;6.20;1.65;;;27.50;61.00;;;;;;5063209;28;20427;-83
2022/05/16 09:57:02;;;;;;;4.10;1.58;;;27.50;62.30;;;;;;5064028;28;20028;-82
2022/05/16 09:59:47;;;;;;;3.30;1.50;;;27.40;58.40;;;;;;5070197;28;20036;-82
2022/05/16 10:02:31;;;;;;;5.57;1.20;;;27.30;60.50;;;;;;5068708;28;20047;-83
2022/05/16 10:05:19;;;;;;;2.65;1.50;;;27.20;60.10;;;;;;5068144;28;20155;-81
2022/05/16 10:07:48;;;;;;;3.92;1.60;;;27.40;59.40;;;;;;5044577;28;20041;-82
2022/05/16 10:10:17;;;;;;;5.20;1.63;;;27.50;58.70;;;;;;5065149;28;20082;-81
2022/05/16 10:12:43;;;;;;;3.78;1.70;;;27.30;57.70;;;;;;5064884;28;20028;-82
2022/05/16 10:15:11;;;;;;;5.63;1.50;;;27.20;61.00;;;;;;5062689;28;20371;-82
2022/05/16 10:17:38;;;;;;;4.38;1.30;;;27.40;60.30;;;;;;5060606;28;20060;-82
2022/05/16 10:20:25;;;;;;;4.32;1.30;;;27.50;58.10;;;;;;5057938;28;20107;-82
2022/05/16 10:22:55;;;;;;;7.45;1.60;;;27.70;57.60;;;;;;5050444;28;20075;-81
2022/05/16 10:25:27;;;;;;;3.88;1.27;;;27.90;57.00;;;;;;5057222;28;20036;-82
2022/05/16 10:27:55;;;;;;;3.47;1.27;;;28.10;59.30;;;;;;5063110;28;20498;-81
2022/05/16 10:30:25;;;;;;;7.43;1.63;;;28.30;59.30;;;;;;5071285;28;20500;-81
2022/05/16 10:35:48;;;;;;;5.15;1.30;;;28.50;57.40;;;;;;5064407;28;20059;-81
2022/05/16 10:38:47;;;;;;;9.52;1.88;;;28.70;55.90;;;;;;5061121;28;20028;-78
2022/05/16 10:41:23;;;;;;;24.30;3.55;;;28.70;56.70;;;;;;5064282;28;20112;-80
2022/05/16 10:44:10;;;;;;;5.95;1.60;;;28.70;55.30;;;;;;5067055;28;20024;-82
2022/05/16 10:46:42;;;;;;;4.50;1.60;;;28.60;55.00;;;;;;5065075;28;20029;-82
2022/05/16 10:49:19;;;;;;;5.40;1.35;;;28.60;55.40;;;;;;5059780;28;20128;-81
2022/05/16 10:51:55;;;;;;;5.43;1.75;;;28.60;57.10;;;;;;5047409;28;20033;-82
2022/05/16 10:54:23;;;;;;;4.40;1.50;;;28.50;55.00;;;;;;5047129;28;20031;-82
2022/05/16 10:57:17;;;;;;;5.07;1.90;;;28.50;56.20;;;;;;5066549;28;20033;-75
2022/05/16 11:00:00;;;;;;;2.97;1.25;;;28.50;57.50;;;;;;5066081;28;20024;-79
2022/05/16 11:02:41;;;;;;;5.30;1.45;;;28.50;56.20;;;;;;5066288;28;20632;-85
2022/05/16 11:05:42;;;;;;;6.50;1.52;;;28.50;60.20;;;;;;5068048;28;20025;-87
2022/05/16 11:08:39;;;;;;;7.85;1.27;;;28.40;58.80;;;;;;5061303;28;20100;-84
2022/05/16 11:11:34;;;;;;;6.40;1.75;;;28.50;58.20;;;;;;5048829;28;20029;-84
2022/05/16 11:14:18;;;;;;;4.57;1.40;;;28.60;57.70;;;;;;5059413;28;20034;-85
2022/05/16 11:16:44;;;;;;;6.50;1.00;;;28.90;57.30;;;;;;5057260;28;20028;-84
2022/05/16 11:19:30;;;;;;;3.63;1.65;;;29.10;58.30;;;;;;5061177;28;20049;-85
2022/05/16 11:22:14;;;;;;;4.85;1.40;;;29.30;57.60;;;;;;5048959;28;20021;-86
2022/05/16 11:25:04;;;;;;;4.07;1.17;;;29.40;59.30;;;;;;5052115;28;20036;-85
2022/05/16 11:27:33;;;;;;;5.28;1.55;;;29.70;55.90;;;;;;5059196;28;20469;-86
2022/05/16 11:30:09;;;;;;;3.20;1.10;;;29.70;56.70;;;;;;5060454;28;20045;-84
2022/05/16 11:33:00;;;;;;;5.53;1.40;;;29.90;54.40;;;;;;5048327;28;20025;-86
2022/05/16 11:35:45;;;;;;;2.83;1.10;;;30.00;56.40;;;;;;5046193;28;20490;-85
2022/05/16 11:38:22;;;;;;;5.28;1.48;;;30.00;54.30;;;;;;5059001;28;20037;-85
2022/05/16 11:41:07;;;;;;;5.93;1.73;;;30.00;55.50;;;;;;5059694;28;20063;-84
2022/05/16 11:43:37;;;;;;;4.85;1.60;;;30.00;53.40;;;;;;5065793;28;20090;-86
2022/05/16 11:46:18;;;;;;;5.65;1.80;;;30.00;56.10;;;;;;5059437;28;20074;-86
2022/05/16 11:48:53;;;;;;;4.28;1.00;;;30.00;55.80;;;;;;5063025;28;20021;-86
2022/05/16 11:51:18;;;;;;;3.30;1.38;;;30.10;53.20;;;;;;5050378;28;20033;-85
2022/05/16 11:53:50;;;;;;;3.53;1.52;;;30.30;53.30;;;;;;5067786;28;20035;-85
2022/05/16 12:02:35;;;;;;;5.20;1.45;;;30.80;52.30;;;;;;5060174;28;20036;-85
2022/05/16 12:05:01;;;;;;;4.78;1.60;;;30.80;51.90;;;;;;5063734;28;20032;-87
2022/05/16 12:07:39;;;;;;;2.92;1.00;;;30.80;52.60;;;;;;5052341;28;20493;-85
2022/05/16 12:10:14;;;;;;;4.38;1.40;;;30.80;53.30;;;;;;5052789;28;20487;-87
2022/05/16 12:13:00;;;;;;;8.88;1.60;;;30.80;52.20;;;;;;5065716;28;20501;-86
2022/05/16 12:15:28;;;;;;;9.02;1.75;;;30.80;52.50;;;;;;5064450;28;20033;-86
2022/05/16 12:18:06;;;;;;;7.43;1.85;;;30.80;51.60;;;;;;5064479;28;20550;-85
2022/05/16 12:20:58;;;;;;;2.92;1.52;;;30.80;53.70;;;;;;5056030;28;20037;-87
2022/05/16 12:23:57;;;;;;;3.55;1.45;;;30.80;52.20;;;;;;5048374;28;20045;-86
2022/05/16 12:26:43;;;;;;;7.05;1.52;;;30.60;52.60;;;;;;5033398;28;20040;-87
2022/05/16 12:29:09;;;;;;;6.43;1.42;;;30.60;52.50;;;;;;5037050;28;20117;-85
2022/05/16 12:31:40;;;;;;;3.67;1.55;;;30.60;53.10;;;;;;5060542;28;20638;-85
2022/05/16 12:34:05;;;;;;;3.30;1.50;;;30.70;51.10;;;;;;5067356;28;20386;-85
2022/05/16 12:36:31;;;;;;;3.38;1.60;;;30.70;52.60;;;;;;5068613;28;20040;-85
2022/05/16 12:39:38;;;;;;;4.03;2.22;;;30.70;52.10;;;;;;5071944;28;20449;-88
2022/05/16 12:42:24;;;;;;;7.28;2.50;;;30.70;52.30;;;;;;5060139;28;20490;-88
2022/05/16 12:45:07;;;;;;;5.43;2.40;;;30.60;50.90;;;;;;5070922;28;20028;-86
2022/05/16 12:47:44;;;;;;;5.00;1.90;;;30.60;52.20;;;;;;5067879;28;20139;-85
2022/05/16 12:50:32;;;;;;;7.57;1.70;;;30.60;53.40;;;;;;5058472;28;20470;-86
2022/05/16 12:53:42;;;;;;;4.50;2.10;;;30.60;51.60;;;;;;5063436;28;20033;-85
2022/05/16 12:56:22;;;;;;;3.72;1.45;;;30.50;53.30;;;;;;5020270;28;20059;-86
2022/05/16 12:59:06;;;;;;;4.85;2.13;;;30.40;53.10;;;;;;5052135;28;20527;-87
2022/05/16 13:01:52;;;;;;;5.53;1.73;;;30.40;53.60;;;;;;5062975;28;20039;-86
2022/05/16 13:04:56;;;;;;;3.85;1.55;;;30.40;53.80;;;;;;5053233;28;20121;-88
2022/05/16 13:07:48;;;;;;;8.82;1.35;;;30.40;53.70;;;;;;5053957;28;20051;-87
2022/05/16 13:10:30;;;;;;;3.42;1.58;;;30.40;53.00;;;;;;5069137;28;20024;-86
2022/05/16 13:13:09;;;;;;;5.60;1.30;;;30.20;51.90;;;;;;5063792;28;20025;-89
2022/05/16 13:16:12;;;;;;;4.28;1.40;;;30.20;52.10;;;;;;5049152;28;20354;-85
2022/05/16 13:18:51;;;;;;;8.60;1.75;;;30.20;53.40;;;;;;5053128;28;20394;-85
2022/05/16 13:21:17;;;;;;;5.63;1.45;;;30.10;52.50;;;;;;5055212;28;20024;-85
2022/05/16 13:23:45;;;;;;;4.05;1.48;;;30.00;54.10;;;;;;5067180;28;20054;-85
2022/05/16 13:31:44;;;;;;;8.57;1.90;;;29.80;54.70;;;;;;5067832;28;20040;-86
2022/05/16 13:34:12;;;;;;;4.38;1.58;;;29.40;55.70;;;;;;5070608;28;20024;-84
2022/05/16 13:36:43;;;;;;;5.25;1.98;;;29.00;57.50;;;;;;5064021;28;20044;-76
2022/05/16 13:39:13;;;;;;;13.80;1.70;;;28.40;59.00;;;;;;5070242;28;20717;-78
2022/05/16 13:41:39;;;;;;;11.88;1.80;;;28.00;59.70;;;;;;5069623;28;20529;-76
2022/05/16 13:44:09;;;;;;;8.43;1.60;;;27.50;60.80;;;;;;5066560;28;20504;-76
2022/05/16 13:46:34;;;;;;;5.85;1.73;;;27.10;62.20;;;;;;5066777;28;20040;-80
2022/05/16 13:49:10;;;;;;;4.72;1.60;;;26.90;63.30;;;;;;5062926;28;20025;-81
2022/05/16 13:51:48;;;;;;;9.32;2.42;;;26.70;63.80;;;;;;5064369;28;20032;-79
2022/05/16 13:54:18;;;;;;;6.82;1.63;;;26.30;64.10;;;;;;5067737;28;20028;-79